createdAt,value
2023-09-28T00:01:05.020Z,97324.91
2023-09-28T00:06:06.832Z,97326.09
2023-09-28T00:11:08.752Z,97323.91
2023-09-28T00:16:10.712Z,97320.31
2023-09-28T00:21:12.555Z,97341.19
2023-09-28T00:26:14.600Z,97346.50
2023-09-28T00:31:18.361Z,97352.94
2023-09-28T00:36:20.174Z,97356.53
2023-09-28T00:41:21.944Z,97352.47
2023-09-28T00:46:23.889Z,97353.81
2023-09-28T00:51:28.545Z,97357.72
2023-09-28T00:56:31.419Z,97364.91
2023-09-28T01:01:33.352Z,97362.19
2023-09-28T01:06:36.468Z,97363.09
2023-09-28T01:11:41.536Z,97354.56
2023-09-28T01:16:43.933Z,97353.50
2023-09-28T01:21:46.388Z,97364.50
2023-09-28T01:26:48.470Z,97366.91
2023-09-28T01:31:50.308Z,97360.56
2023-09-28T01:36:52.104Z,97358.94
2023-09-28T01:41:54.120Z,97365.56
2023-09-28T01:46:55.872Z,97349.06
2023-09-28T01:51:57.638Z,97349.44
2023-09-28T01:56:59.551Z,97344.44
2023-09-28T02:02:02.535Z,97351.81
2023-09-28T02:07:05.527Z,97344.59
2023-09-28T02:12:07.774Z,97346.28
2023-09-28T02:17:09.555Z,97351.25
2023-09-28T02:22:11.676Z,97346.44
2023-09-28T02:27:13.938Z,97343.75
2023-09-28T02:32:15.817Z,97355.00
2023-09-28T02:37:19.292Z,97357.72
2023-09-28T02:42:22.525Z,97346.38
2023-09-28T02:47:25.183Z,97355.13
2023-09-28T02:52:29.142Z,97365.06
2023-09-28T02:57:30.908Z,97366.28
2023-09-28T03:02:34.557Z,97379.41
2023-09-28T03:07:38.327Z,97387.09
2023-09-28T03:12:40.637Z,97386.09
2023-09-28T03:17:43.429Z,97392.19
2023-09-28T03:22:47.271Z,97385.00
2023-09-28T03:27:51.243Z,97400.97
2023-09-28T03:32:56.244Z,97401.81
2023-09-28T03:37:59.858Z,97396.63
2023-09-28T03:43:02.528Z,97396.03
2023-09-28T03:48:04.919Z,97394.38
2023-09-28T03:53:06.915Z,97386.97
2023-09-28T03:58:08.868Z,97403.69
2023-09-28T04:03:11.854Z,97405.91
2023-09-28T04:08:13.644Z,97407.28
2023-09-28T04:13:15.427Z,97409.19
2023-09-28T04:18:17.279Z,97405.63
2023-09-28T04:23:19.423Z,97400.94
2023-09-28T04:28:21.140Z,97418.56
2023-09-28T04:33:22.870Z,97415.53
2023-09-28T04:38:24.790Z,97419.69
2023-09-28T04:43:26.880Z,97426.81
2023-09-28T04:48:28.653Z,97422.16
2023-09-28T04:53:30.589Z,97422.44
2023-09-28T04:58:32.942Z,97425.19
2023-09-28T05:03:35.686Z,97416.38
2023-09-28T05:08:37.467Z,97429.56
2023-09-28T05:13:39.841Z,97430.16
2023-09-28T05:18:42.746Z,97433.97
2023-09-28T05:23:44.545Z,97424.66
2023-09-28T05:28:46.498Z,97440.00
2023-09-28T05:33:48.922Z,97441.09
2023-09-28T05:38:51.065Z,97437.00
2023-09-28T05:43:53.084Z,97441.13
2023-09-28T05:48:55.195Z,97453.47
2023-09-28T05:53:56.954Z,97454.31
2023-09-28T05:58:58.756Z,97462.25
2023-09-28T06:04:00.990Z,97467.78
2023-09-28T06:09:02.916Z,97466.91
2023-09-28T06:14:08.224Z,97468.00
2023-09-28T06:19:10.723Z,97466.88
2023-09-28T06:24:12.490Z,97471.78
2023-09-28T06:29:14.795Z,97462.94
2023-09-28T06:34:16.723Z,97469.97
2023-09-28T06:39:19.067Z,97478.09
2023-09-28T06:44:21.657Z,97479.66
2023-09-28T06:49:24.979Z,97475.44
2023-09-28T06:54:27.397Z,97492.09
2023-09-28T06:59:29.325Z,97505.72
2023-09-28T07:04:31.529Z,97504.72
2023-09-28T07:09:43.600Z,97497.72
2023-09-28T07:14:53.091Z,97515.81
2023-09-28T07:19:55.428Z,97521.16
2023-09-28T07:24:57.672Z,97527.63
2023-09-28T07:30:00.607Z,97531.38
2023-09-28T07:35:04.026Z,97537.91
2023-09-28T07:40:07.952Z,97540.78
2023-09-28T07:45:10.644Z,97542.03
2023-09-28T07:50:15.885Z,97549.38
2023-09-28T07:55:18.373Z,97542.38
2023-09-28T08:00:20.929Z,97542.81
2023-09-28T08:05:23.357Z,97542.06
2023-09-28T08:10:25.180Z,97548.50
2023-09-28T08:15:36.099Z,97546.13
2023-09-28T08:20:40.491Z,97551.19
2023-09-28T08:25:45.958Z,97544.38
2023-09-28T08:30:47.685Z,97532.78
2023-09-28T08:35:52.543Z,97519.78
2023-09-28T08:41:01.299Z,97522.84
2023-09-28T08:46:04.801Z,97542.97
2023-09-28T08:51:10.151Z,97531.50
2023-09-28T08:56:12.609Z,97531.09
2023-09-28T09:01:14.869Z,97543.84
2023-09-28T09:06:17.054Z,97532.16
2023-09-28T09:11:20.249Z,97532.31
2023-09-28T09:16:26.735Z,97528.56
2023-09-28T09:21:40.169Z,97517.13
2023-09-28T09:26:43.821Z,97497.63
2023-09-28T09:31:50.659Z,97474.78
2023-09-28T09:36:57.119Z,97484.84
2023-09-28T09:41:59.299Z,97487.94
2023-09-28T09:47:01.613Z,97499.00
2023-09-28T09:52:07.233Z,97498.09
2023-09-28T09:57:10.903Z,97504.38
2023-09-28T10:02:24.059Z,97503.47
2023-09-28T10:07:46.628Z,97505.28
2023-09-28T10:12:51.300Z,97508.09
2023-09-28T10:17:54.680Z,97504.38
2023-09-28T10:22:57.152Z,97501.25
2023-09-28T10:27:59.855Z,97492.13
2023-09-28T10:33:10.541Z,97491.78
2023-09-28T10:38:20.972Z,97491.13
2023-09-28T10:43:42.209Z,97480.13
2023-09-28T10:48:46.246Z,97481.22
2023-09-28T10:53:48.927Z,97488.91
2023-09-28T10:58:51.207Z,97492.44
2023-09-28T11:03:56.153Z,97481.22
2023-09-28T11:09:02.377Z,97475.56
2023-09-28T11:14:06.326Z,97481.25
2023-09-28T11:19:10.719Z,97471.41
2023-09-28T11:24:18.325Z,97476.47
2023-09-28T11:29:21.108Z,97465.41
2023-09-28T11:34:34.284Z,97470.84
2023-09-28T11:39:37.634Z,97474.47
2023-09-28T11:44:42.989Z,97473.16
2023-09-28T11:49:45.009Z,97468.41
2023-09-28T11:54:48.417Z,97466.47
2023-09-28T11:59:50.545Z,97460.94
2023-09-28T12:04:52.663Z,97450.91
2023-09-28T12:10:04.250Z,97444.03
2023-09-28T12:15:11.833Z,97439.34
2023-09-28T12:20:14.333Z,97435.84
2023-09-28T12:25:16.185Z,97423.72
2023-09-28T12:30:23.487Z,97434.78
2023-09-28T12:35:25.977Z,97424.19
2023-09-28T12:40:27.808Z,97417.72
2023-09-28T12:45:34.116Z,97407.81
2023-09-28T12:50:36.024Z,97405.25
2023-09-28T12:55:37.939Z,97399.13
2023-09-28T13:00:40.228Z,97396.41
2023-09-28T13:05:42.496Z,97396.41
2023-09-28T13:10:44.376Z,97393.63
2023-09-28T13:15:47.355Z,97397.44
2023-09-28T13:20:49.205Z,97401.91
2023-09-28T13:25:51.376Z,97405.69
2023-09-28T13:30:55.107Z,97399.91
2023-09-28T13:35:57.246Z,97404.03
2023-09-28T13:41:11.598Z,97399.47
2023-09-28T13:46:18.452Z,97410.31
2023-09-28T13:51:20.466Z,97397.16
2023-09-28T13:56:23.169Z,97400.25
2023-09-28T14:01:25.257Z,97395.94
2023-09-28T14:06:27.013Z,97400.53
2023-09-28T14:11:29.502Z,97385.88
2023-09-28T14:16:33.665Z,97388.13
2023-09-28T14:21:40.315Z,97377.81
2023-09-28T14:26:44.053Z,97383.41
2023-09-28T14:31:45.981Z,97372.91
2023-09-28T14:36:47.800Z,97366.78
2023-09-28T14:41:50.059Z,97359.88
2023-09-28T14:46:52.747Z,97353.03
2023-09-28T14:51:54.944Z,97344.78
2023-09-28T14:56:56.590Z,97344.88
2023-09-28T15:01:58.343Z,97348.03
2023-09-28T15:07:00.169Z,97353.38
2023-09-28T15:12:05.817Z,97344.31
2023-09-28T15:17:07.968Z,97338.06
2023-09-28T15:22:10.577Z,97339.97
2023-09-28T15:27:14.013Z,97345.47
2023-09-28T15:32:16.011Z,97347.84
2023-09-28T15:37:19.556Z,97336.91
2023-09-28T15:42:21.666Z,97327.66
2023-09-28T15:47:23.963Z,97323.63
2023-09-28T15:52:26.236Z,97332.81
2023-09-28T15:57:28.325Z,97341.06
2023-09-28T16:02:30.176Z,97335.34
2023-09-28T16:07:32.524Z,97334.00
2023-09-28T16:12:35.373Z,97335.66
2023-09-28T16:17:37.391Z,97342.53
2023-09-28T16:22:39.244Z,97359.09
2023-09-28T16:27:41.043Z,97349.75
2023-09-28T16:32:42.855Z,97352.28
2023-09-28T16:37:44.685Z,97355.22
2023-09-28T16:42:46.658Z,97356.22
2023-09-28T16:47:48.450Z,97365.03
2023-09-28T16:52:50.292Z,97360.50
2023-09-28T16:57:53.162Z,97365.81
2023-09-28T17:02:55.520Z,97363.53
2023-09-28T17:07:57.526Z,97362.59
2023-09-28T17:12:59.881Z,97357.06
2023-09-28T17:18:18.004Z,97363.91
2023-09-28T17:23:22.826Z,97364.91
2023-09-28T17:28:26.007Z,97375.50
2023-09-28T17:33:27.994Z,97384.44
2023-09-28T17:38:29.770Z,97385.94
2023-09-28T17:43:31.626Z,97386.38
2023-09-28T17:48:33.797Z,97392.69
2023-09-28T17:53:35.767Z,97406.47
2023-09-28T17:58:37.936Z,97406.56
2023-09-28T18:03:39.805Z,97411.28
2023-09-28T18:08:41.794Z,97420.31
2023-09-28T18:13:43.644Z,97421.72
2023-09-28T18:18:46.737Z,97430.50
2023-09-28T18:23:49.049Z,97425.97
2023-09-28T18:28:51.200Z,97423.03
2023-09-28T18:33:56.229Z,97424.25
2023-09-28T18:39:13.543Z,97431.53
2023-09-28T18:44:17.990Z,97432.63
2023-09-28T18:49:22.116Z,97440.19
2023-09-28T18:54:23.899Z,97432.22
2023-09-28T18:59:26.979Z,97433.34
2023-09-28T19:04:31.153Z,97441.78
2023-09-28T19:09:34.389Z,97434.19
2023-09-28T19:14:38.502Z,97441.94
2023-09-28T19:19:40.420Z,97437.78
2023-09-28T19:24:42.514Z,97441.94
2023-09-28T19:29:44.288Z,97442.25
2023-09-28T19:34:46.136Z,97446.78
2023-09-28T19:39:48.056Z,97459.59
2023-09-28T19:44:50.781Z,97464.81
2023-09-28T19:49:52.621Z,97462.91
2023-09-28T19:54:54.367Z,97462.09
2023-09-28T19:59:56.238Z,97460.22
2023-09-28T20:04:58.170Z,97465.25
2023-09-28T20:10:00.164Z,97466.31
2023-09-28T20:15:02.048Z,97463.69
2023-09-28T20:20:08.904Z,97471.50
2023-09-28T20:25:10.960Z,97457.56
2023-09-28T20:30:13.837Z,97453.59
2023-09-28T20:35:17.620Z,97447.00
2023-09-28T20:40:19.562Z,97448.00
2023-09-28T20:45:21.585Z,97462.91
2023-09-28T20:50:24.555Z,97461.13
2023-09-28T20:55:26.598Z,97458.31
2023-09-28T21:00:28.441Z,97465.97
2023-09-28T21:05:31.509Z,97464.81
2023-09-28T21:10:37.782Z,97461.38
2023-09-28T21:15:39.530Z,97452.25
2023-09-28T21:20:41.417Z,97461.72
2023-09-28T21:25:43.244Z,97463.88
2023-09-28T21:30:44.982Z,97470.06
2023-09-28T21:35:46.773Z,97470.06
2023-09-28T21:40:48.560Z,97469.56
2023-09-28T21:45:50.401Z,97468.97
2023-09-28T21:50:52.244Z,97480.06
2023-09-28T21:55:54.672Z,97469.75
2023-09-28T22:00:56.417Z,97469.00
2023-09-28T22:05:58.205Z,97466.06
2023-09-28T22:11:00.718Z,97472.53
2023-09-28T22:16:03.224Z,97478.03
2023-09-28T22:21:05.094Z,97484.44
2023-09-28T22:26:07.591Z,97488.53
2023-09-28T22:31:09.470Z,97485.16
2023-09-28T22:36:11.631Z,97494.06
2023-09-28T22:41:16.503Z,97492.88
2023-09-28T22:46:18.775Z,97495.06
2023-09-28T22:51:20.607Z,97496.75
2023-09-28T22:56:22.480Z,97501.81
2023-09-28T23:01:24.324Z,97511.44
2023-09-28T23:06:26.268Z,97512.78
2023-09-28T23:11:31.557Z,97502.34
2023-09-28T23:16:33.656Z,97515.81
2023-09-28T23:21:36.426Z,97518.84
2023-09-28T23:26:38.111Z,97501.22
2023-09-28T23:31:39.922Z,97502.66
2023-09-28T23:36:41.737Z,97506.81
2023-09-28T23:41:44.823Z,97507.59
2023-09-28T23:46:46.951Z,97506.81
2023-09-28T23:51:49.138Z,97499.72
2023-09-28T23:56:51.116Z,97498.56
